createdAt,value
2023-04-29T00:02:03.609Z,10.30
2023-04-29T00:04:30.071Z,10.40
2023-04-29T00:06:56.382Z,10.40
2023-04-29T00:09:22.533Z,10.30
2023-04-29T00:11:49.544Z,10.30
2023-04-29T00:14:16.464Z,10.30
2023-04-29T00:16:42.697Z,10.30
2023-04-29T00:19:09.021Z,10.30
2023-04-29T00:21:35.212Z,10.30
2023-04-29T00:24:01.393Z,10.30
2023-04-29T00:26:27.822Z,10.30
2023-04-29T00:28:53.926Z,10.30
2023-04-29T00:31:21.222Z,10.30
2023-04-29T00:33:47.459Z,10.30
2023-04-29T00:36:13.644Z,10.20
2023-04-29T00:38:39.866Z,10.10
2023-04-29T00:41:06.037Z,10.20
2023-04-29T00:43:32.193Z,10.10
2023-04-29T00:45:58.771Z,10.20
2023-04-29T00:48:24.983Z,10.10
2023-04-29T00:50:53.949Z,10.20
2023-04-29T00:53:22.034Z,10.10
2023-04-29T00:55:50.122Z,10.10
2023-04-29T00:58:17.010Z,10.10
2023-04-29T01:00:43.394Z,10.10
2023-04-29T01:03:10.174Z,10.10
2023-04-29T01:05:36.451Z,12.40
2023-04-29T01:08:28.390Z,10.10
2023-04-29T01:10:59.554Z,10.10
2023-04-29T01:13:48.891Z,10.10
2023-04-29T01:16:23.887Z,11.00
2023-04-29T01:18:54.071Z,9.90
2023-04-29T01:21:20.523Z,9.80
2023-04-29T01:23:46.979Z,9.70
2023-04-29T01:26:14.092Z,9.70
2023-04-29T01:28:54.438Z,9.80
2023-04-29T01:31:38.289Z,9.80
2023-04-29T01:34:09.910Z,9.80
2023-04-29T01:37:14.717Z,9.90
2023-04-29T01:40:29.576Z,9.90
2023-04-29T01:43:00.598Z,10.00
2023-04-29T01:45:26.796Z,9.90
2023-04-29T01:47:54.467Z,10.00
2023-04-29T01:50:20.921Z,9.90
2023-04-29T01:52:47.617Z,9.90
2023-04-29T01:55:13.857Z,9.90
2023-04-29T01:57:40.473Z,9.90
2023-04-29T02:00:08.352Z,10.00
2023-04-29T02:02:34.739Z,10.00
2023-04-29T02:05:01.675Z,10.00
2023-04-29T02:07:28.036Z,10.00
2023-04-29T02:09:54.311Z,10.00
2023-04-29T02:12:21.018Z,9.90
2023-04-29T02:14:50.224Z,9.90
2023-04-29T02:17:16.396Z,10.00
2023-04-29T02:19:42.543Z,10.00
2023-04-29T02:22:12.177Z,10.00
2023-04-29T02:24:38.435Z,10.00
2023-04-29T02:27:07.245Z,9.90
2023-04-29T02:29:33.403Z,9.90
2023-04-29T02:31:59.650Z,9.90
2023-04-29T02:34:25.945Z,9.90
2023-04-29T02:36:52.767Z,9.80
2023-04-29T02:39:19.909Z,9.80
2023-04-29T02:41:46.036Z,9.80
2023-04-29T02:44:12.318Z,9.80
2023-04-29T02:46:40.808Z,9.80
2023-04-29T02:49:06.914Z,9.90
2023-04-29T02:51:33.403Z,9.90
2023-04-29T02:53:59.917Z,9.80
2023-04-29T02:56:26.057Z,9.80
2023-04-29T02:58:52.754Z,9.80
2023-04-29T03:01:18.976Z,9.80
2023-04-29T03:03:46.289Z,9.80
2023-04-29T03:06:12.678Z,9.70
2023-04-29T03:08:38.904Z,9.70
2023-04-29T03:11:05.158Z,9.70
2023-04-29T03:13:31.311Z,9.70
2023-04-29T03:15:59.831Z,9.70
2023-04-29T03:18:26.013Z,9.70
2023-04-29T03:20:52.126Z,9.70
2023-04-29T03:23:18.308Z,9.60
2023-04-29T03:25:44.459Z,9.70
2023-04-29T03:28:10.749Z,9.60
2023-04-29T03:30:37.914Z,9.60
2023-04-29T03:33:04.136Z,9.60
2023-04-29T03:35:30.312Z,9.60
2023-04-29T03:37:56.432Z,9.60
2023-04-29T03:40:22.593Z,9.60
2023-04-29T03:42:48.785Z,9.50
2023-04-29T03:45:14.939Z,9.50
2023-04-29T03:47:41.243Z,9.50
2023-04-29T03:50:08.330Z,9.10
2023-04-29T03:52:37.445Z,9.50
2023-04-29T03:55:04.317Z,9.40
2023-04-29T03:57:30.472Z,9.40
2023-04-29T03:59:56.856Z,9.40
2023-04-29T04:02:23.137Z,9.40
2023-04-29T04:04:49.584Z,9.30
2023-04-29T04:07:15.995Z,9.30
2023-04-29T04:09:42.169Z,9.30
2023-04-29T04:12:08.679Z,9.30
2023-04-29T04:14:34.845Z,9.40
2023-04-29T04:17:01.011Z,9.40
2023-04-29T04:19:28.402Z,9.50
2023-04-29T04:21:54.579Z,9.50
2023-04-29T04:24:20.728Z,9.70
2023-04-29T04:26:46.960Z,9.70
2023-04-29T04:29:13.503Z,8.80
2023-04-29T04:31:39.734Z,9.90
2023-04-29T04:34:06.000Z,9.90
2023-04-29T04:36:32.230Z,10.00
2023-04-29T04:38:58.724Z,9.90
2023-04-29T04:41:26.341Z,9.90
2023-04-29T04:43:52.588Z,9.90
2023-04-29T04:46:19.283Z,8.60
2023-04-29T04:48:45.499Z,9.90
2023-04-29T04:51:12.121Z,9.90
2023-04-29T04:53:38.776Z,9.90
2023-04-29T04:56:05.689Z,10.00
2023-04-29T04:58:32.325Z,10.10
2023-04-29T05:00:59.796Z,10.20
2023-04-29T05:03:26.374Z,10.40
2023-04-29T05:05:56.536Z,10.70
2023-04-29T05:08:22.828Z,10.90
2023-04-29T05:10:49.183Z,11.30
2023-04-29T05:13:15.752Z,11.80
2023-04-29T05:15:42.649Z,12.10
2023-04-29T05:18:08.820Z,12.20
2023-04-29T05:20:35.464Z,12.10
2023-04-29T05:23:04.735Z,12.10
2023-04-29T05:25:31.134Z,12.10
2023-04-29T05:27:57.395Z,12.40
2023-04-29T05:30:23.523Z,12.60
2023-04-29T05:32:49.765Z,12.70
2023-04-29T05:35:16.222Z,12.90
2023-04-29T05:37:42.511Z,13.10
2023-04-29T05:40:09.588Z,13.30
2023-04-29T05:42:35.797Z,13.40
2023-04-29T05:45:01.958Z,13.70
2023-04-29T05:47:28.249Z,13.80
2023-04-29T05:49:54.625Z,13.90
2023-04-29T05:52:21.311Z,13.80
2023-04-29T05:54:47.555Z,14.10
2023-04-29T05:57:13.761Z,15.30
2023-04-29T05:59:39.953Z,16.70
2023-04-29T06:02:06.148Z,17.90
2023-04-29T06:04:32.733Z,18.90
2023-04-29T06:06:59.524Z,17.50
2023-04-29T06:09:27.936Z,18.90
2023-04-29T06:11:54.737Z,20.80
2023-04-29T06:14:21.051Z,21.70
2023-04-29T06:16:48.503Z,21.50
2023-04-29T06:19:14.737Z,22.20
2023-04-29T06:21:41.261Z,21.10
2023-04-29T06:24:07.413Z,20.30
2023-04-29T06:26:33.822Z,19.70
2023-04-29T06:29:00.060Z,19.10
2023-04-29T06:31:27.110Z,18.60
2023-04-29T06:33:54.341Z,18.00
2023-04-29T06:36:20.566Z,17.50
2023-04-29T06:38:46.706Z,17.10
2023-04-29T06:41:12.911Z,16.60
2023-04-29T06:43:39.088Z,16.20
2023-04-29T06:46:05.234Z,15.90
2023-04-29T06:48:32.334Z,15.40
2023-04-29T06:50:59.383Z,15.00
2023-04-29T06:53:25.604Z,14.70
2023-04-29T06:55:51.767Z,14.40
2023-04-29T06:58:18.294Z,14.20
2023-04-29T07:00:45.718Z,14.00
2023-04-29T07:03:12.263Z,13.90
2023-04-29T07:05:40.159Z,13.70
2023-04-29T07:08:06.402Z,13.60
2023-04-29T07:10:32.591Z,13.60
2023-04-29T07:13:00.133Z,13.50
2023-04-29T07:15:27.099Z,13.50
2023-04-29T07:17:53.628Z,13.50
2023-04-29T07:20:21.858Z,13.40
2023-04-29T07:22:48.542Z,13.40
2023-04-29T07:25:14.678Z,13.50
2023-04-29T07:27:41.418Z,13.50
2023-04-29T07:30:08.437Z,13.50
2023-04-29T07:32:34.638Z,13.50
2023-04-29T07:35:01.060Z,13.50
2023-04-29T07:37:27.205Z,13.50
2023-04-29T07:39:53.382Z,13.50
2023-04-29T07:42:20.178Z,13.50
2023-04-29T07:44:46.325Z,13.50
2023-04-29T07:47:12.471Z,13.50
2023-04-29T07:49:38.912Z,13.50
2023-04-29T07:52:05.464Z,13.50
2023-04-29T07:54:31.687Z,13.50
2023-04-29T07:56:58.147Z,13.40
2023-04-29T07:59:24.408Z,13.40
2023-04-29T08:01:51.683Z,13.40
2023-04-29T08:04:18.866Z,13.40
2023-04-29T08:06:46.025Z,13.40
2023-04-29T08:09:12.366Z,13.40
2023-04-29T08:11:39.423Z,13.40
2023-04-29T08:14:06.400Z,13.30
2023-04-29T08:16:32.601Z,13.20
2023-04-29T08:18:58.778Z,13.20
2023-04-29T08:21:24.936Z,13.20
2023-04-29T08:23:53.057Z,13.00
2023-04-29T08:26:19.415Z,13.00
2023-04-29T08:28:45.710Z,12.90
2023-04-29T08:31:18.789Z,12.90
2023-04-29T08:33:45.023Z,12.80
2023-04-29T08:36:11.280Z,12.70
2023-04-29T08:38:37.589Z,12.70
2023-04-29T08:41:03.908Z,12.70
2023-04-29T08:43:30.516Z,12.60
2023-04-29T08:45:58.689Z,12.60
2023-04-29T08:48:26.241Z,12.60
2023-04-29T08:50:52.562Z,12.70
2023-04-29T08:53:19.517Z,12.70
2023-04-29T08:55:46.449Z,12.70
2023-04-29T08:58:13.565Z,12.80
2023-04-29T09:00:40.355Z,12.90
2023-04-29T09:03:31.226Z,13.00
2023-04-29T09:05:59.253Z,13.00
2023-04-29T09:08:25.473Z,13.00
2023-04-29T09:10:52.469Z,13.10
2023-04-29T09:13:31.803Z,13.20
2023-04-29T09:15:58.884Z,13.30
2023-04-29T09:18:50.717Z,13.40
2023-04-29T09:21:24.285Z,13.60
2023-04-29T09:23:51.887Z,13.90
2023-04-29T09:26:18.456Z,14.20
2023-04-29T09:28:49.125Z,14.60
2023-04-29T09:31:17.011Z,14.80
2023-04-29T09:33:54.074Z,15.20
2023-04-29T09:36:39.972Z,15.50
2023-04-29T09:39:12.206Z,15.90
2023-04-29T09:41:58.846Z,16.10
2023-04-29T09:44:27.223Z,16.50
2023-04-29T09:47:02.052Z,16.80
2023-04-29T09:49:30.629Z,17.10
2023-04-29T09:51:58.970Z,17.50
2023-04-29T09:54:35.756Z,17.60
2023-04-29T09:57:04.170Z,17.80
2023-04-29T09:59:30.484Z,17.40
2023-04-29T10:01:58.752Z,17.60
2023-04-29T10:04:26.051Z,17.70
2023-04-29T10:06:53.986Z,17.70
2023-04-29T10:09:20.972Z,17.60
2023-04-29T10:11:48.721Z,17.50
2023-04-29T10:14:16.104Z,17.60
2023-04-29T10:17:01.931Z,17.60
2023-04-29T10:19:39.023Z,19.30
2023-04-29T10:22:14.204Z,18.10
2023-04-29T10:24:40.883Z,18.20
2023-04-29T10:27:08.321Z,18.20
2023-04-29T10:29:36.129Z,18.30
2023-04-29T10:32:03.634Z,18.20
2023-04-29T10:34:31.544Z,18.30
2023-04-29T10:36:59.192Z,18.50
2023-04-29T10:39:43.768Z,18.50
2023-04-29T10:44:04.222Z,18.70
2023-04-29T10:46:31.053Z,19.60
2023-04-29T10:49:00.258Z,19.80
2023-04-29T10:51:43.271Z,19.70
2023-04-29T10:54:13.963Z,19.90
2023-04-29T10:56:50.353Z,19.90
2023-04-29T10:59:21.372Z,20.00
2023-04-29T11:01:54.043Z,20.00
2023-04-29T11:04:21.291Z,20.30
2023-04-29T11:07:00.464Z,20.80
2023-04-29T11:09:27.996Z,21.00
2023-04-29T11:12:04.830Z,21.10
2023-04-29T11:14:38.203Z,20.90
2023-04-29T11:17:12.400Z,21.60
2023-04-29T11:19:50.307Z,21.60
2023-04-29T11:22:34.663Z,21.60
2023-04-29T11:25:02.500Z,21.10
2023-04-29T11:27:39.814Z,21.10
2023-04-29T11:30:07.060Z,20.90
2023-04-29T11:32:39.366Z,21.00
2023-04-29T11:35:09.982Z,21.00
2023-04-29T11:37:36.878Z,21.10
2023-04-29T11:40:04.669Z,20.90
2023-04-29T11:42:46.186Z,20.20
2023-04-29T11:45:12.590Z,20.80
2023-04-29T11:47:42.471Z,20.90
2023-04-29T11:50:09.607Z,20.40
2023-04-29T11:52:37.449Z,19.90
2023-04-29T11:55:05.529Z,20.30
2023-04-29T11:57:31.798Z,19.30
2023-04-29T11:59:58.418Z,19.90
2023-04-29T12:02:32.267Z,20.00
2023-04-29T12:05:02.970Z,20.20
2023-04-29T12:07:29.387Z,19.90
2023-04-29T12:09:59.947Z,19.80
2023-04-29T12:12:30.943Z,19.70
2023-04-29T12:14:57.171Z,20.10
2023-04-29T12:17:23.763Z,20.80
2023-04-29T12:19:50.065Z,19.70
2023-04-29T12:22:16.334Z,19.50
2023-04-29T12:24:42.619Z,19.80
2023-04-29T12:27:09.712Z,20.00
2023-04-29T12:29:36.737Z,20.30
2023-04-29T12:32:03.052Z,20.20
2023-04-29T12:34:30.349Z,20.20
2023-04-29T12:37:01.243Z,19.80
2023-04-29T12:39:29.384Z,19.60
2023-04-29T12:41:57.787Z,19.10
2023-04-29T12:44:25.221Z,18.90
2023-04-29T12:46:56.292Z,19.70
2023-04-29T12:49:24.873Z,18.70
2023-04-29T12:51:51.093Z,18.30
2023-04-29T12:54:17.406Z,18.00
2023-04-29T12:56:43.618Z,17.80
2023-04-29T12:59:10.121Z,17.50
2023-04-29T13:01:36.665Z,17.30
2023-04-29T13:04:04.546Z,17.40
2023-04-29T13:06:31.713Z,17.60
2023-04-29T13:08:58.227Z,18.50
2023-04-29T13:11:32.173Z,19.30
2023-04-29T13:14:00.444Z,19.80
2023-04-29T14:23:55.032Z,17.40
2023-04-29T14:28:57.045Z,17.20
2023-04-29T14:31:28.093Z,17.10
2023-04-29T14:33:55.413Z,17.40
2023-04-29T14:36:23.171Z,17.40
2023-04-29T14:38:49.512Z,17.40
2023-04-29T14:41:15.779Z,17.20
2023-04-29T14:43:42.110Z,16.80
2023-04-29T14:46:08.549Z,17.10
2023-04-29T14:48:35.049Z,17.20
2023-04-29T14:51:01.315Z,17.80
2023-04-29T14:53:27.544Z,17.70
2023-04-29T14:55:53.751Z,17.20
2023-04-29T14:58:20.586Z,17.30
2023-04-29T15:00:46.881Z,17.10
2023-04-29T15:03:21.582Z,17.20
2023-04-29T15:05:52.150Z,17.20
2023-04-29T15:08:18.730Z,17.20
2023-04-29T15:10:49.257Z,16.70
2023-04-29T15:13:15.716Z,16.30
2023-04-29T15:15:42.142Z,16.10
2023-04-29T15:18:08.743Z,15.30
2023-04-29T15:20:36.179Z,15.20
2023-04-29T15:23:03.624Z,15.00
2023-04-29T15:25:30.540Z,14.50
2023-04-29T15:27:58.476Z,14.00
2023-04-29T15:30:26.978Z,13.50
2023-04-29T15:32:54.309Z,13.10
2023-04-29T15:35:20.646Z,12.70
2023-04-29T15:37:46.942Z,12.50
2023-04-29T15:40:13.365Z,12.30
2023-04-29T15:42:39.691Z,12.10
2023-04-29T15:45:08.142Z,12.10
2023-04-29T15:47:34.990Z,12.00
2023-04-29T15:50:01.633Z,12.00
2023-04-29T15:52:27.996Z,12.10
2023-04-29T15:54:56.948Z,12.20
2023-04-29T15:57:24.978Z,12.30
2023-04-29T15:59:51.456Z,12.40
2023-04-29T16:02:19.626Z,12.60
2023-04-29T16:04:46.095Z,12.80
2023-04-29T16:07:12.308Z,11.70
2023-04-29T16:09:39.929Z,13.00
2023-04-29T16:12:07.342Z,13.00
2023-04-29T16:14:34.238Z,13.00
2023-04-29T16:17:00.776Z,12.90
2023-04-29T16:19:27.051Z,13.00
2023-04-29T16:21:53.760Z,12.90
2023-04-29T16:24:20.351Z,13.00
2023-04-29T16:26:47.587Z,13.10
2023-04-29T16:29:13.982Z,13.10
2023-04-29T16:31:40.545Z,13.20
2023-04-29T16:34:07.131Z,13.30
2023-04-29T16:36:33.611Z,13.30
2023-04-29T16:38:59.860Z,13.30
2023-04-29T16:41:26.218Z,13.30
2023-04-29T16:43:53.300Z,13.40
2023-04-29T16:46:19.856Z,13.40
2023-04-29T16:48:46.186Z,13.40
2023-04-29T16:51:12.617Z,13.30
2023-04-29T16:53:39.840Z,11.20
2023-04-29T16:56:07.433Z,13.00
2023-04-29T16:58:33.786Z,13.00
2023-04-29T17:01:00.030Z,13.00
2023-04-29T17:03:26.258Z,12.90
2023-04-29T17:05:52.788Z,12.90
2023-04-29T17:08:19.294Z,12.90
2023-04-29T17:10:47.234Z,12.80
2023-04-29T17:13:13.870Z,12.80
2023-04-29T17:15:40.403Z,12.80
2023-04-29T17:18:06.983Z,12.70
2023-04-29T17:20:34.823Z,12.70
2023-04-29T17:23:01.405Z,12.60
2023-04-29T17:25:28.838Z,12.60
2023-04-29T17:27:55.162Z,12.50
2023-04-29T17:30:22.137Z,12.40
2023-04-29T17:32:49.200Z,12.40
2023-04-29T17:35:16.365Z,12.30
2023-04-29T17:37:42.747Z,12.30
2023-04-29T17:40:09.906Z,12.20
2023-04-29T17:42:36.298Z,12.20
2023-04-29T17:45:02.936Z,11.70
2023-04-29T17:47:29.228Z,12.10
2023-04-29T17:49:58.258Z,12.00
2023-04-29T17:52:26.162Z,12.00
2023-04-29T17:54:53.907Z,11.90
2023-04-29T17:57:20.167Z,11.90
2023-04-29T17:59:47.054Z,11.80
2023-04-29T18:02:13.415Z,11.70
2023-04-29T18:04:40.364Z,11.80
2023-04-29T18:07:06.719Z,11.70
2023-04-29T18:09:34.888Z,11.70
2023-04-29T18:12:03.977Z,11.70
2023-04-29T18:14:30.998Z,11.60
2023-04-29T18:17:01.094Z,11.60
2023-04-29T18:19:28.043Z,11.50
2023-04-29T18:21:57.695Z,11.50
2023-04-29T18:24:25.393Z,11.60
2023-04-29T18:26:51.556Z,11.50
2023-04-29T18:29:17.880Z,11.50
2023-04-29T18:31:44.573Z,11.50
2023-04-29T18:34:11.454Z,11.50
2023-04-29T18:36:37.989Z,11.50
2023-04-29T18:39:04.862Z,11.50
2023-04-29T18:41:33.348Z,11.50
2023-04-29T18:43:59.613Z,11.50
2023-04-29T18:46:28.972Z,11.40
2023-04-29T18:48:55.860Z,13.20
2023-04-29T18:51:23.640Z,11.40
2023-04-29T18:53:50.442Z,11.30
2023-04-29T18:56:17.110Z,11.30
2023-04-29T18:58:43.518Z,11.20
2023-04-29T19:01:10.856Z,11.20
2023-04-29T19:03:37.649Z,11.20
2023-04-29T19:06:04.369Z,11.20
2023-04-29T19:08:30.889Z,11.20
2023-04-29T19:10:58.667Z,11.10
2023-04-29T19:13:27.705Z,11.10
2023-04-29T19:15:54.656Z,11.10
2023-04-29T19:18:22.708Z,11.10
2023-04-29T19:20:49.442Z,11.00
2023-04-29T19:23:16.479Z,11.00
2023-04-29T19:25:43.614Z,11.00
2023-04-29T19:28:10.479Z,11.00
2023-04-29T19:30:38.262Z,11.00
2023-04-29T19:33:05.131Z,11.30
2023-04-29T19:35:31.859Z,11.00
2023-04-29T19:37:58.798Z,11.00
2023-04-29T19:40:25.842Z,10.90
2023-04-29T19:42:53.229Z,10.90
2023-04-29T19:45:23.216Z,10.90
2023-04-29T19:47:51.096Z,10.90
2023-04-29T19:50:18.398Z,10.90
2023-04-29T19:52:45.013Z,10.90
2023-04-29T19:55:12.418Z,11.00
2023-04-29T19:57:40.301Z,11.00
2023-04-29T20:00:09.156Z,10.90
2023-04-29T20:02:36.147Z,10.90
2023-04-29T20:05:05.570Z,10.90
2023-04-29T20:07:32.221Z,10.90
2023-04-29T20:10:00.892Z,10.90
2023-04-29T20:12:28.426Z,10.90
2023-04-29T20:14:56.239Z,10.80
2023-04-29T20:17:24.647Z,10.80
2023-04-29T20:19:51.163Z,10.80
2023-04-29T20:22:21.882Z,10.80
2023-04-29T20:24:48.242Z,10.80
2023-04-29T20:27:17.420Z,10.80
2023-04-29T20:29:45.833Z,10.80
2023-04-29T20:32:13.341Z,10.80
2023-04-29T20:34:42.452Z,10.80
2023-04-29T20:37:09.270Z,10.80
2023-04-29T20:39:36.466Z,10.80
2023-04-29T20:42:03.409Z,10.80
2023-04-29T20:44:32.562Z,10.80
2023-04-29T20:46:59.665Z,10.80
2023-04-29T20:49:26.213Z,10.80
2023-04-29T20:51:54.106Z,10.80
2023-04-29T20:54:22.846Z,10.80
2023-04-29T20:56:55.564Z,10.80
2023-04-29T20:59:22.782Z,10.80
2023-04-29T21:01:49.422Z,10.80
2023-04-29T21:04:16.421Z,10.80
2023-04-29T21:06:42.828Z,10.80
2023-04-29T21:09:09.215Z,10.80
2023-04-29T21:11:37.819Z,10.80
2023-04-29T21:14:04.172Z,10.80
2023-04-29T21:16:30.675Z,10.70
2023-04-29T21:18:57.137Z,10.70
2023-04-29T21:21:23.463Z,10.70
2023-04-29T21:23:49.679Z,10.80
2023-04-29T21:26:18.913Z,10.70
2023-04-29T21:28:45.327Z,10.70
2023-04-29T21:31:15.507Z,10.60
2023-04-29T21:33:45.405Z,10.60
2023-04-29T21:36:11.948Z,10.60
2023-04-29T21:38:38.156Z,10.50
2023-04-29T21:41:09.335Z,10.50
2023-04-29T21:43:35.841Z,10.50
2023-04-29T21:46:02.158Z,10.40
2023-04-29T21:48:28.393Z,10.60
2023-04-29T21:50:54.964Z,10.40
2023-04-29T21:53:21.264Z,10.50
2023-04-29T21:55:51.362Z,10.50
2023-04-29T21:58:20.298Z,10.30
2023-04-29T22:00:57.284Z,10.30
2023-04-29T22:03:23.828Z,10.20
2023-04-29T22:05:50.208Z,10.20
2023-04-29T22:08:16.406Z,10.10
2023-04-29T22:10:43.115Z,9.90
2023-04-29T22:13:09.747Z,10.10
2023-04-29T22:15:35.994Z,10.10
2023-04-29T22:18:02.831Z,10.10
2023-04-29T22:20:29.111Z,10.10
2023-04-29T22:22:55.736Z,10.10
2023-04-29T22:25:22.234Z,10.10
2023-04-29T22:27:48.917Z,10.20
2023-04-29T22:30:16.919Z,10.10
2023-04-29T22:32:43.368Z,10.10
2023-04-29T22:35:09.693Z,10.10
2023-04-29T22:37:35.912Z,10.10
2023-04-29T22:40:02.122Z,10.10
2023-04-29T22:42:28.304Z,10.10
2023-04-29T22:44:55.113Z,10.10
2023-04-29T22:47:21.326Z,10.00
2023-04-29T22:49:47.516Z,10.00
2023-04-29T22:52:13.876Z,10.00
2023-04-29T22:54:40.081Z,10.00
2023-04-29T22:57:07.776Z,10.00
2023-04-29T22:59:34.024Z,10.00
2023-04-29T23:02:00.351Z,10.00
2023-04-29T23:04:27.109Z,9.90
2023-04-29T23:06:53.285Z,11.60
2023-04-29T23:09:19.490Z,9.90
2023-04-29T23:11:45.732Z,9.90
2023-04-29T23:14:11.941Z,9.90
2023-04-29T23:16:38.207Z,9.90
2023-04-29T23:19:04.515Z,9.90
2023-04-29T23:21:32.276Z,9.90
2023-04-29T23:23:58.425Z,9.90
2023-04-29T23:26:24.750Z,9.90
2023-04-29T23:28:50.933Z,9.80
2023-04-29T23:31:17.220Z,9.90
2023-04-29T23:33:43.607Z,8.10
2023-04-29T23:36:10.681Z,9.80
2023-04-29T23:38:36.882Z,9.80
2023-04-29T23:41:03.124Z,9.80
2023-04-29T23:43:29.378Z,9.80
2023-04-29T23:45:55.602Z,9.80
2023-04-29T23:48:21.842Z,9.70
2023-04-29T23:50:48.100Z,9.70
2023-04-29T23:53:15.064Z,9.70
2023-04-29T23:55:41.324Z,9.70
2023-04-29T23:58:07.534Z,9.70
